sensor_id;sensor_type;location;lat;lon;timestamp;P1;durP1;ratioP1;P2;durP2;ratioP2
23608;SDS011;11982;50.810;4.442;2022-11-13T00:01:57;43.28;;;25.75;;
23608;SDS011;11982;50.810;4.442;2022-11-13T00:04:23;41.13;;;25.23;;
23608;SDS011;11982;50.810;4.442;2022-11-13T00:06:49;47.75;;;28.67;;
23608;SDS011;11982;50.810;4.442;2022-11-13T00:09:14;50.85;;;31.42;;
23608;SDS011;11982;50.810;4.442;2022-11-13T00:11:40;46.08;;;29.42;;
23608;SDS011;11982;50.810;4.442;2022-11-13T00:14:05;52.00;;;30.08;;
23608;SDS011;11982;50.810;4.442;2022-11-13T00:16:31;49.92;;;30.17;;
23608;SDS011;11982;50.810;4.442;2022-11-13T00:18:56;50.72;;;31.30;;
23608;SDS011;11982;50.810;4.442;2022-11-13T00:21:23;59.00;;;33.90;;
23608;SDS011;11982;50.810;4.442;2022-11-13T00:23:51;59.67;;;33.72;;
23608;SDS011;11982;50.810;4.442;2022-11-13T00:26:22;56.90;;;35.42;;
23608;SDS011;11982;50.810;4.442;2022-11-13T00:28:53;60.10;;;35.80;;
23608;SDS011;11982;50.810;4.442;2022-11-13T00:31:19;58.60;;;36.03;;
23608;SDS011;11982;50.810;4.442;2022-11-13T00:33:45;63.20;;;35.53;;
23608;SDS011;11982;50.810;4.442;2022-11-13T00:36:14;63.83;;;35.70;;
23608;SDS011;11982;50.810;4.442;2022-11-13T00:38:51;57.45;;;35.88;;
23608;SDS011;11982;50.810;4.442;2022-11-13T00:41:17;63.88;;;37.55;;
23608;SDS011;11982;50.810;4.442;2022-11-13T00:43:43;60.28;;;35.20;;
23608;SDS011;11982;50.810;4.442;2022-11-13T00:46:08;62.85;;;36.70;;
23608;SDS011;11982;50.810;4.442;2022-11-13T00:48:34;57.00;;;36.33;;
23608;SDS011;11982;50.810;4.442;2022-11-13T00:51:00;66.30;;;37.53;;
23608;SDS011;11982;50.810;4.442;2022-11-13T00:53:26;71.68;;;38.40;;
23608;SDS011;11982;50.810;4.442;2022-11-13T00:55:52;59.80;;;36.47;;
23608;SDS011;11982;50.810;4.442;2022-11-13T00:58:17;61.38;;;37.78;;
23608;SDS011;11982;50.810;4.442;2022-11-13T01:00:43;84.78;;;47.45;;
23608;SDS011;11982;50.810;4.442;2022-11-13T01:03:11;63.80;;;39.55;;
23608;SDS011;11982;50.810;4.442;2022-11-13T01:05:39;60.83;;;37.65;;
23608;SDS011;11982;50.810;4.442;2022-11-13T01:08:06;60.38;;;36.47;;
23608;SDS011;11982;50.810;4.442;2022-11-13T01:10:38;63.85;;;37.38;;
23608;SDS011;11982;50.810;4.442;2022-11-13T01:13:08;61.35;;;36.92;;
23608;SDS011;11982;50.810;4.442;2022-11-13T01:15:34;60.85;;;38.53;;
23608;SDS011;11982;50.810;4.442;2022-11-13T01:18:03;61.10;;;36.90;;
23608;SDS011;11982;50.810;4.442;2022-11-13T01:20:28;65.82;;;38.95;;
23608;SDS011;11982;50.810;4.442;2022-11-13T01:22:54;64.05;;;37.97;;
23608;SDS011;11982;50.810;4.442;2022-11-13T01:25:20;65.85;;;38.72;;
23608;SDS011;11982;50.810;4.442;2022-11-13T01:27:45;57.53;;;37.25;;
23608;SDS011;11982;50.810;4.442;2022-11-13T01:30:11;61.97;;;36.38;;
23608;SDS011;11982;50.810;4.442;2022-11-13T01:32:36;60.97;;;37.38;;
23608;SDS011;11982;50.810;4.442;2022-11-13T01:35:02;62.53;;;37.33;;
23608;SDS011;11982;50.810;4.442;2022-11-13T01:37:28;59.40;;;35.90;;
23608;SDS011;11982;50.810;4.442;2022-11-13T01:39:53;75.97;;;41.95;;
23608;SDS011;11982;50.810;4.442;2022-11-13T01:42:19;55.55;;;34.97;;
23608;SDS011;11982;50.810;4.442;2022-11-13T01:47:10;49.55;;;31.95;;
23608;SDS011;11982;50.810;4.442;2022-11-13T01:49:37;58.72;;;32.88;;
23608;SDS011;11982;50.810;4.442;2022-11-13T01:52:12;55.60;;;34.88;;
23608;SDS011;11982;50.810;4.442;2022-11-13T01:54:44;59.10;;;36.30;;
23608;SDS011;11982;50.810;4.442;2022-11-13T01:57:14;59.92;;;34.90;;
23608;SDS011;11982;50.810;4.442;2022-11-13T01:59:43;58.85;;;34.90;;
23608;SDS011;11982;50.810;4.442;2022-11-13T02:02:13;59.30;;;34.83;;
23608;SDS011;11982;50.810;4.442;2022-11-13T02:04:38;52.20;;;32.30;;
23608;SDS011;11982;50.810;4.442;2022-11-13T02:07:07;55.30;;;33.17;;
23608;SDS011;11982;50.810;4.442;2022-11-13T02:09:36;60.50;;;36.03;;
23608;SDS011;11982;50.810;4.442;2022-11-13T02:12:04;53.50;;;30.85;;
23608;SDS011;11982;50.810;4.442;2022-11-13T02:14:32;54.42;;;32.65;;
23608;SDS011;11982;50.810;4.442;2022-11-13T02:17:02;53.45;;;32.22;;
23608;SDS011;11982;50.810;4.442;2022-11-13T02:19:32;52.55;;;33.95;;
23608;SDS011;11982;50.810;4.442;2022-11-13T02:22:10;55.40;;;34.63;;
23608;SDS011;11982;50.810;4.442;2022-11-13T02:24:59;61.30;;;38.90;;
23608;SDS011;11982;50.810;4.442;2022-11-13T02:27:31;70.38;;;41.38;;
23608;SDS011;11982;50.810;4.442;2022-11-13T02:30:10;73.40;;;41.90;;
23608;SDS011;11982;50.810;4.442;2022-11-13T02:32:42;67.68;;;38.80;;
23608;SDS011;11982;50.810;4.442;2022-11-13T02:35:12;66.35;;;37.55;;
23608;SDS011;11982;50.810;4.442;2022-11-13T02:37:40;55.13;;;35.00;;
23608;SDS011;11982;50.810;4.442;2022-11-13T02:40:06;53.13;;;33.47;;
23608;SDS011;11982;50.810;4.442;2022-11-13T02:42:32;55.97;;;34.70;;
23608;SDS011;11982;50.810;4.442;2022-11-13T02:44:58;60.30;;;35.33;;
23608;SDS011;11982;50.810;4.442;2022-11-13T02:47:24;63.95;;;38.05;;
23608;SDS011;11982;50.810;4.442;2022-11-13T02:49:49;70.03;;;39.47;;
23608;SDS011;11982;50.810;4.442;2022-11-13T02:52:15;59.95;;;37.13;;
23608;SDS011;11982;50.810;4.442;2022-11-13T02:54:40;57.08;;;34.42;;
23608;SDS011;11982;50.810;4.442;2022-11-13T02:57:06;55.03;;;34.20;;
23608;SDS011;11982;50.810;4.442;2022-11-13T02:59:31;61.30;;;35.70;;
23608;SDS011;11982;50.810;4.442;2022-11-13T03:01:57;59.10;;;34.70;;
23608;SDS011;11982;50.810;4.442;2022-11-13T03:04:23;59.17;;;35.55;;
23608;SDS011;11982;50.810;4.442;2022-11-13T03:06:48;71.05;;;41.80;;
23608;SDS011;11982;50.810;4.442;2022-11-13T03:11:42;69.82;;;40.38;;
23608;SDS011;11982;50.810;4.442;2022-11-13T03:14:08;59.60;;;35.22;;
23608;SDS011;11982;50.810;4.442;2022-11-13T03:16:34;60.38;;;35.88;;
23608;SDS011;11982;50.810;4.442;2022-11-13T03:19:00;60.03;;;35.72;;
23608;SDS011;11982;50.810;4.442;2022-11-13T03:21:26;60.58;;;36.03;;
23608;SDS011;11982;50.810;4.442;2022-11-13T03:23:52;56.10;;;33.13;;
23608;SDS011;11982;50.810;4.442;2022-11-13T03:26:19;53.25;;;33.85;;
23608;SDS011;11982;50.810;4.442;2022-11-13T03:28:44;52.13;;;34.35;;
23608;SDS011;11982;50.810;4.442;2022-11-13T03:31:10;51.50;;;32.88;;
23608;SDS011;11982;50.810;4.442;2022-11-13T03:33:36;55.55;;;33.83;;
23608;SDS011;11982;50.810;4.442;2022-11-13T03:36:01;63.47;;;35.95;;
23608;SDS011;11982;50.810;4.442;2022-11-13T03:38:27;58.38;;;34.35;;
23608;SDS011;11982;50.810;4.442;2022-11-13T03:40:53;58.03;;;35.22;;
23608;SDS011;11982;50.810;4.442;2022-11-13T03:43:19;57.88;;;34.15;;
23608;SDS011;11982;50.810;4.442;2022-11-13T03:45:45;49.60;;;30.63;;
23608;SDS011;11982;50.810;4.442;2022-11-13T03:48:12;53.78;;;33.08;;
23608;SDS011;11982;50.810;4.442;2022-11-13T03:50:41;56.25;;;30.77;;
23608;SDS011;11982;50.810;4.442;2022-11-13T03:53:09;51.10;;;29.52;;
23608;SDS011;11982;50.810;4.442;2022-11-13T03:55:35;47.30;;;28.25;;
23608;SDS011;11982;50.810;4.442;2022-11-13T03:58:01;53.15;;;30.25;;
23608;SDS011;11982;50.810;4.442;2022-11-13T04:00:26;44.47;;;28.17;;
23608;SDS011;11982;50.810;4.442;2022-11-13T04:02:52;44.00;;;26.60;;
23608;SDS011;11982;50.810;4.442;2022-11-13T04:05:18;49.97;;;28.25;;
23608;SDS011;11982;50.810;4.442;2022-11-13T04:07:44;42.88;;;27.02;;
23608;SDS011;11982;50.810;4.442;2022-11-13T04:10:10;46.78;;;28.58;;
23608;SDS011;11982;50.810;4.442;2022-11-13T04:12:35;46.47;;;29.80;;
23608;SDS011;11982;50.810;4.442;2022-11-13T04:15:01;46.10;;;27.48;;
23608;SDS011;11982;50.810;4.442;2022-11-13T04:17:27;50.00;;;27.83;;
23608;SDS011;11982;50.810;4.442;2022-11-13T04:19:52;45.28;;;26.75;;
23608;SDS011;11982;50.810;4.442;2022-11-13T04:22:18;43.47;;;26.77;;
23608;SDS011;11982;50.810;4.442;2022-11-13T04:24:43;43.83;;;25.73;;
23608;SDS011;11982;50.810;4.442;2022-11-13T04:27:09;46.63;;;28.70;;
23608;SDS011;11982;50.810;4.442;2022-11-13T04:29:35;38.28;;;24.73;;
23608;SDS011;11982;50.810;4.442;2022-11-13T04:32:00;41.72;;;25.00;;
23608;SDS011;11982;50.810;4.442;2022-11-13T04:34:26;38.67;;;24.05;;
23608;SDS011;11982;50.810;4.442;2022-11-13T04:36:51;36.92;;;23.65;;
23608;SDS011;11982;50.810;4.442;2022-11-13T04:39:17;38.47;;;23.98;;
23608;SDS011;11982;50.810;4.442;2022-11-13T04:41:42;35.67;;;22.60;;
23608;SDS011;11982;50.810;4.442;2022-11-13T04:44:26;36.57;;;23.57;;
23608;SDS011;11982;50.810;4.442;2022-11-13T04:46:52;45.60;;;25.23;;
23608;SDS011;11982;50.810;4.442;2022-11-13T04:49:18;32.03;;;21.77;;
23608;SDS011;11982;50.810;4.442;2022-11-13T04:51:43;39.78;;;22.08;;
23608;SDS011;11982;50.810;4.442;2022-11-13T04:54:09;34.40;;;22.23;;
23608;SDS011;11982;50.810;4.442;2022-11-13T04:56:34;39.80;;;22.98;;
23608;SDS011;11982;50.810;4.442;2022-11-13T04:59:00;37.75;;;22.88;;
23608;SDS011;11982;50.810;4.442;2022-11-13T05:01:25;36.92;;;21.45;;
23608;SDS011;11982;50.810;4.442;2022-11-13T05:03:51;37.42;;;23.10;;
23608;SDS011;11982;50.810;4.442;2022-11-13T05:06:16;37.05;;;21.83;;
23608;SDS011;11982;50.810;4.442;2022-11-13T05:08:42;32.30;;;21.15;;
23608;SDS011;11982;50.810;4.442;2022-11-13T05:11:08;39.30;;;22.40;;
23608;SDS011;11982;50.810;4.442;2022-11-13T05:13:34;36.72;;;20.75;;
23608;SDS011;11982;50.810;4.442;2022-11-13T05:16:04;35.13;;;21.88;;
23608;SDS011;11982;50.810;4.442;2022-11-13T05:18:31;33.65;;;20.42;;
23608;SDS011;11982;50.810;4.442;2022-11-13T05:20:57;34.97;;;19.90;;
23608;SDS011;11982;50.810;4.442;2022-11-13T05:23:23;28.83;;;19.58;;
23608;SDS011;11982;50.810;4.442;2022-11-13T05:25:49;33.28;;;19.55;;
23608;SDS011;11982;50.810;4.442;2022-11-13T05:28:14;37.72;;;19.27;;
23608;SDS011;11982;50.810;4.442;2022-11-13T05:30:40;32.00;;;19.38;;
23608;SDS011;11982;50.810;4.442;2022-11-13T05:33:06;32.92;;;19.77;;
23608;SDS011;11982;50.810;4.442;2022-11-13T05:35:31;27.85;;;18.13;;
23608;SDS011;11982;50.810;4.442;2022-11-13T05:38:00;26.80;;;18.63;;
23608;SDS011;11982;50.810;4.442;2022-11-13T05:40:27;30.15;;;19.13;;
23608;SDS011;11982;50.810;4.442;2022-11-13T05:42:54;36.03;;;19.10;;
23608;SDS011;11982;50.810;4.442;2022-11-13T05:45:20;34.88;;;20.05;;
23608;SDS011;11982;50.810;4.442;2022-11-13T05:47:46;31.98;;;18.75;;
23608;SDS011;11982;50.810;4.442;2022-11-13T05:50:12;27.27;;;17.15;;
23608;SDS011;11982;50.810;4.442;2022-11-13T05:52:37;29.35;;;17.85;;
23608;SDS011;11982;50.810;4.442;2022-11-13T05:55:03;27.65;;;17.65;;
23608;SDS011;11982;50.810;4.442;2022-11-13T05:57:29;29.65;;;17.13;;
23608;SDS011;11982;50.810;4.442;2022-11-13T05:59:55;30.63;;;18.83;;
23608;SDS011;11982;50.810;4.442;2022-11-13T06:02:20;35.85;;;19.45;;
23608;SDS011;11982;50.810;4.442;2022-11-13T06:04:49;29.08;;;17.63;;
23608;SDS011;11982;50.810;4.442;2022-11-13T06:07:15;32.08;;;19.50;;
23608;SDS011;11982;50.810;4.442;2022-11-13T06:09:40;31.65;;;19.20;;
23608;SDS011;11982;50.810;4.442;2022-11-13T06:12:06;30.17;;;17.75;;
23608;SDS011;11982;50.810;4.442;2022-11-13T06:14:32;32.22;;;19.08;;
23608;SDS011;11982;50.810;4.442;2022-11-13T06:16:57;32.42;;;19.08;;
23608;SDS011;11982;50.810;4.442;2022-11-13T06:19:23;31.63;;;19.42;;
23608;SDS011;11982;50.810;4.442;2022-11-13T06:21:48;34.55;;;19.27;;
23608;SDS011;11982;50.810;4.442;2022-11-13T06:24:14;32.03;;;18.55;;
23608;SDS011;11982;50.810;4.442;2022-11-13T06:26:40;30.83;;;18.17;;
23608;SDS011;11982;50.810;4.442;2022-11-13T06:29:07;27.85;;;17.80;;
23608;SDS011;11982;50.810;4.442;2022-11-13T06:31:35;26.52;;;17.10;;
23608;SDS011;11982;50.810;4.442;2022-11-13T06:34:01;29.98;;;18.17;;
23608;SDS011;11982;50.810;4.442;2022-11-13T06:36:29;29.60;;;17.00;;
23608;SDS011;11982;50.810;4.442;2022-11-13T06:38:59;29.58;;;18.25;;
23608;SDS011;11982;50.810;4.442;2022-11-13T06:41:26;32.38;;;17.75;;
23608;SDS011;11982;50.810;4.442;2022-11-13T06:43:53;26.52;;;17.00;;
23608;SDS011;11982;50.810;4.442;2022-11-13T06:46:23;27.27;;;16.95;;
23608;SDS011;11982;50.810;4.442;2022-11-13T06:48:51;30.77;;;17.50;;
23608;SDS011;11982;50.810;4.442;2022-11-13T06:51:19;24.90;;;16.27;;
23608;SDS011;11982;50.810;4.442;2022-11-13T06:53:49;31.75;;;17.48;;
23608;SDS011;11982;50.810;4.442;2022-11-13T06:56:16;30.65;;;17.70;;
23608;SDS011;11982;50.810;4.442;2022-11-13T06:58:42;29.85;;;18.88;;
23608;SDS011;11982;50.810;4.442;2022-11-13T07:01:14;30.27;;;17.25;;
23608;SDS011;11982;50.810;4.442;2022-11-13T07:03:41;30.58;;;17.50;;
23608;SDS011;11982;50.810;4.442;2022-11-13T07:06:09;28.98;;;17.00;;
23608;SDS011;11982;50.810;4.442;2022-11-13T07:08:40;30.17;;;17.50;;
23608;SDS011;11982;50.810;4.442;2022-11-13T07:11:06;27.08;;;16.85;;
23608;SDS011;11982;50.810;4.442;2022-11-13T07:13:35;29.92;;;16.58;;
23608;SDS011;11982;50.810;4.442;2022-11-13T07:16:03;26.85;;;16.98;;
23608;SDS011;11982;50.810;4.442;2022-11-13T07:18:30;26.38;;;16.67;;
23608;SDS011;11982;50.810;4.442;2022-11-13T07:20:56;26.88;;;16.05;;
23608;SDS011;11982;50.810;4.442;2022-11-13T07:23:22;24.33;;;15.27;;
23608;SDS011;11982;50.810;4.442;2022-11-13T07:25:51;30.58;;;16.70;;
23608;SDS011;11982;50.810;4.442;2022-11-13T07:28:17;27.65;;;16.60;;
23608;SDS011;11982;50.810;4.442;2022-11-13T07:30:43;32.70;;;17.88;;
23608;SDS011;11982;50.810;4.442;2022-11-13T07:33:08;34.95;;;16.60;;
23608;SDS011;11982;50.810;4.442;2022-11-13T07:35:34;32.22;;;17.15;;
23608;SDS011;11982;50.810;4.442;2022-11-13T07:38:02;31.75;;;18.30;;
23608;SDS011;11982;50.810;4.442;2022-11-13T07:40:28;29.55;;;17.75;;
23608;SDS011;11982;50.810;4.442;2022-11-13T07:43:00;32.40;;;18.02;;
23608;SDS011;11982;50.810;4.442;2022-11-13T07:45:27;29.67;;;18.58;;
23608;SDS011;11982;50.810;4.442;2022-11-13T07:48:00;32.67;;;18.30;;
23608;SDS011;11982;50.810;4.442;2022-11-13T07:50:33;33.45;;;17.95;;
23608;SDS011;11982;50.810;4.442;2022-11-13T07:53:01;31.55;;;18.02;;
23608;SDS011;11982;50.810;4.442;2022-11-13T07:55:29;29.38;;;17.38;;
23608;SDS011;11982;50.810;4.442;2022-11-13T07:57:57;28.30;;;16.90;;
23608;SDS011;11982;50.810;4.442;2022-11-13T08:00:24;28.95;;;16.95;;
23608;SDS011;11982;50.810;4.442;2022-11-13T08:02:52;28.38;;;17.10;;
23608;SDS011;11982;50.810;4.442;2022-11-13T08:05:18;30.23;;;17.85;;
23608;SDS011;11982;50.810;4.442;2022-11-13T08:07:50;28.45;;;16.40;;
23608;SDS011;11982;50.810;4.442;2022-11-13T08:10:17;28.35;;;16.70;;
23608;SDS011;11982;50.810;4.442;2022-11-13T08:12:44;27.65;;;17.60;;
23608;SDS011;11982;50.810;4.442;2022-11-13T08:15:10;25.88;;;16.85;;
23608;SDS011;11982;50.810;4.442;2022-11-13T08:17:36;25.67;;;16.70;;
23608;SDS011;11982;50.810;4.442;2022-11-13T08:20:02;25.38;;;16.33;;
23608;SDS011;11982;50.810;4.442;2022-11-13T08:22:29;26.00;;;16.45;;
23608;SDS011;11982;50.810;4.442;2022-11-13T08:24:55;28.73;;;17.10;;
23608;SDS011;11982;50.810;4.442;2022-11-13T08:27:21;32.00;;;16.88;;
23608;SDS011;11982;50.810;4.442;2022-11-13T08:29:47;30.65;;;18.40;;
23608;SDS011;11982;50.810;4.442;2022-11-13T08:32:14;31.58;;;16.92;;
23608;SDS011;11982;50.810;4.442;2022-11-13T08:34:41;28.38;;;16.75;;
23608;SDS011;11982;50.810;4.442;2022-11-13T08:37:06;33.47;;;18.25;;
23608;SDS011;11982;50.810;4.442;2022-11-13T08:39:32;28.52;;;17.98;;
23608;SDS011;11982;50.810;4.442;2022-11-13T08:41:59;32.30;;;21.58;;
23608;SDS011;11982;50.810;4.442;2022-11-13T08:44:25;31.50;;;18.73;;
23608;SDS011;11982;50.810;4.442;2022-11-13T08:46:51;35.28;;;20.45;;
23608;SDS011;11982;50.810;4.442;2022-11-13T08:49:16;33.83;;;20.55;;
23608;SDS011;11982;50.810;4.442;2022-11-13T08:51:42;32.00;;;20.17;;
23608;SDS011;11982;50.810;4.442;2022-11-13T08:54:07;36.05;;;21.65;;
23608;SDS011;11982;50.810;4.442;2022-11-13T08:56:33;40.88;;;21.30;;
23608;SDS011;11982;50.810;4.442;2022-11-13T08:58:59;40.85;;;22.98;;
23608;SDS011;11982;50.810;4.442;2022-11-13T09:01:24;34.83;;;22.27;;
23608;SDS011;11982;50.810;4.442;2022-11-13T09:03:50;35.70;;;24.55;;
23608;SDS011;11982;50.810;4.442;2022-11-13T09:06:15;34.75;;;22.30;;
23608;SDS011;11982;50.810;4.442;2022-11-13T09:08:41;35.47;;;20.98;;
23608;SDS011;11982;50.810;4.442;2022-11-13T09:11:07;31.38;;;20.33;;
23608;SDS011;11982;50.810;4.442;2022-11-13T09:13:33;33.78;;;20.98;;
23608;SDS011;11982;50.810;4.442;2022-11-13T09:15:59;37.22;;;22.48;;
23608;SDS011;11982;50.810;4.442;2022-11-13T09:18:26;32.83;;;21.25;;
23608;SDS011;11982;50.810;4.442;2022-11-13T09:20:52;36.75;;;21.98;;
23608;SDS011;11982;50.810;4.442;2022-11-13T09:23:18;40.40;;;24.70;;
23608;SDS011;11982;50.810;4.442;2022-11-13T09:25:44;40.17;;;27.30;;
23608;SDS011;11982;50.810;4.442;2022-11-13T09:28:10;42.60;;;25.60;;
23608;SDS011;11982;50.810;4.442;2022-11-13T09:30:37;37.08;;;24.42;;
23608;SDS011;11982;50.810;4.442;2022-11-13T09:33:03;41.53;;;26.58;;
23608;SDS011;11982;50.810;4.442;2022-11-13T09:35:30;37.22;;;25.15;;
23608;SDS011;11982;50.810;4.442;2022-11-13T09:38:06;43.72;;;26.45;;
23608;SDS011;11982;50.810;4.442;2022-11-13T09:40:47;44.70;;;26.38;;
23608;SDS011;11982;50.810;4.442;2022-11-13T09:43:37;35.47;;;21.30;;
23608;SDS011;11982;50.810;4.442;2022-11-13T09:46:17;30.08;;;20.27;;
23608;SDS011;11982;50.810;4.442;2022-11-13T09:49:53;32.22;;;19.85;;
23608;SDS011;11982;50.810;4.442;2022-11-13T09:52:02;38.38;;;21.88;;
23608;SDS011;11982;50.810;4.442;2022-11-13T09:54:34;35.15;;;21.25;;
23608;SDS011;11982;50.810;4.442;2022-11-13T10:08:29;24.90;;;17.45;;
23608;SDS011;11982;50.810;4.442;2022-11-13T10:14:24;26.67;;;17.02;;
23608;SDS011;11982;50.810;4.442;2022-11-13T10:17:14;25.63;;;16.15;;
23608;SDS011;11982;50.810;4.442;2022-11-13T10:19:57;26.85;;;17.02;;
23608;SDS011;11982;50.810;4.442;2022-11-13T10:25:15;18.92;;;13.75;;
23608;SDS011;11982;50.810;4.442;2022-11-13T10:27:41;19.73;;;14.25;;
23608;SDS011;11982;50.810;4.442;2022-11-13T10:30:34;16.52;;;13.07;;
23608;SDS011;11982;50.810;4.442;2022-11-13T10:33:03;20.15;;;13.15;;
23608;SDS011;11982;50.810;4.442;2022-11-13T10:35:36;17.77;;;12.32;;
23608;SDS011;11982;50.810;4.442;2022-11-13T10:40:38;15.68;;;11.10;;
23608;SDS011;11982;50.810;4.442;2022-11-13T10:43:14;17.17;;;11.13;;
23608;SDS011;11982;50.810;4.442;2022-11-13T10:45:41;18.25;;;11.27;;
23608;SDS011;11982;50.810;4.442;2022-11-13T10:48:18;13.73;;;9.13;;
23608;SDS011;11982;50.810;4.442;2022-11-13T10:50:51;13.05;;;9.55;;
23608;SDS011;11982;50.810;4.442;2022-11-13T10:53:19;13.00;;;9.27;;
23608;SDS011;11982;50.810;4.442;2022-11-13T10:55:45;11.55;;;8.90;;
23608;SDS011;11982;50.810;4.442;2022-11-13T10:58:16;12.05;;;8.80;;
23608;SDS011;11982;50.810;4.442;2022-11-13T11:00:43;12.50;;;8.40;;
23608;SDS011;11982;50.810;4.442;2022-11-13T11:03:16;12.23;;;9.13;;
23608;SDS011;11982;50.810;4.442;2022-11-13T11:05:52;16.15;;;8.75;;
23608;SDS011;11982;50.810;4.442;2022-11-13T11:08:21;12.48;;;9.10;;
23608;SDS011;11982;50.810;4.442;2022-11-13T11:11:05;12.27;;;8.88;;
23608;SDS011;11982;50.810;4.442;2022-11-13T11:16:40;11.50;;;8.48;;
23608;SDS011;11982;50.810;4.442;2022-11-13T11:19:09;11.88;;;8.07;;
23608;SDS011;11982;50.810;4.442;2022-11-13T11:21:36;11.35;;;8.25;;
23608;SDS011;11982;50.810;4.442;2022-11-13T11:24:13;11.45;;;8.32;;
23608;SDS011;11982;50.810;4.442;2022-11-13T11:26:47;13.60;;;8.23;;
23608;SDS011;11982;50.810;4.442;2022-11-13T11:35:15;11.93;;;7.68;;
23608;SDS011;11982;50.810;4.442;2022-11-13T11:37:56;9.18;;;6.70;;
23608;SDS011;11982;50.810;4.442;2022-11-13T11:40:41;8.48;;;6.63;;
23608;SDS011;11982;50.810;4.442;2022-11-13T11:45:43;9.82;;;6.82;;
23608;SDS011;11982;50.810;4.442;2022-11-13T11:48:20;11.20;;;6.80;;
23608;SDS011;11982;50.810;4.442;2022-11-13T11:56:43;6.93;;;5.40;;
23608;SDS011;11982;50.810;4.442;2022-11-13T12:04:51;8.88;;;5.50;;
23608;SDS011;11982;50.810;4.442;2022-11-13T12:16:15;9.88;;;6.53;;
23608;SDS011;11982;50.810;4.442;2022-11-13T12:26:58;7.72;;;5.72;;
23608;SDS011;11982;50.810;4.442;2022-11-13T12:29:37;6.68;;;5.40;;
23608;SDS011;11982;50.810;4.442;2022-11-13T12:35:08;6.43;;;5.30;;
23608;SDS011;11982;50.810;4.442;2022-11-13T12:40:35;6.75;;;5.32;;
23608;SDS011;11982;50.810;4.442;2022-11-13T12:46:16;7.85;;;5.53;;
23608;SDS011;11982;50.810;4.442;2022-11-13T12:48:44;7.63;;;5.18;;
23608;SDS011;11982;50.810;4.442;2022-11-13T12:51:14;7.70;;;4.97;;
23608;SDS011;11982;50.810;4.442;2022-11-13T12:56:29;6.55;;;4.65;;
23608;SDS011;11982;50.810;4.442;2022-11-13T12:59:12;11.73;;;5.07;;
23608;SDS011;11982;50.810;4.442;2022-11-13T13:05:34;5.97;;;4.75;;
23608;SDS011;11982;50.810;4.442;2022-11-13T13:13:34;6.57;;;4.45;;
23608;SDS011;11982;50.810;4.442;2022-11-13T13:16:08;5.50;;;4.10;;
23608;SDS011;11982;50.810;4.442;2022-11-13T13:18:35;5.63;;;4.20;;
23608;SDS011;11982;50.810;4.442;2022-11-13T13:21:09;7.95;;;4.43;;
23608;SDS011;11982;50.810;4.442;2022-11-13T13:23:46;5.15;;;3.78;;
23608;SDS011;11982;50.810;4.442;2022-11-13T13:39:53;6.78;;;4.00;;
23608;SDS011;11982;50.810;4.442;2022-11-13T13:48:37;6.30;;;3.47;;
23608;SDS011;11982;50.810;4.442;2022-11-13T13:51:11;4.97;;;3.35;;
23608;SDS011;11982;50.810;4.442;2022-11-13T13:53:58;4.65;;;3.15;;
23608;SDS011;11982;50.810;4.442;2022-11-13T13:56:26;7.05;;;3.22;;
23608;SDS011;11982;50.810;4.442;2022-11-13T13:58:51;5.20;;;3.45;;
23608;SDS011;11982;50.810;4.442;2022-11-13T14:01:52;3.72;;;3.15;;
23608;SDS011;11982;50.810;4.442;2022-11-13T14:04:33;5.55;;;3.72;;
23608;SDS011;11982;50.810;4.442;2022-11-13T14:07:27;6.78;;;4.00;;
23608;SDS011;11982;50.810;4.442;2022-11-13T14:10:06;4.07;;;2.95;;
23608;SDS011;11982;50.810;4.442;2022-11-13T14:12:43;3.92;;;3.38;;
23608;SDS011;11982;50.810;4.442;2022-11-13T14:17:49;5.35;;;3.20;;
23608;SDS011;11982;50.810;4.442;2022-11-13T14:20:15;4.45;;;3.20;;
23608;SDS011;11982;50.810;4.442;2022-11-13T14:22:42;5.15;;;3.08;;
23608;SDS011;11982;50.810;4.442;2022-11-13T14:25:22;4.30;;;3.00;;
23608;SDS011;11982;50.810;4.442;2022-11-13T14:27:50;6.18;;;3.20;;
23608;SDS011;11982;50.810;4.442;2022-11-13T14:32:50;6.78;;;3.30;;
23608;SDS011;11982;50.810;4.442;2022-11-13T14:35:18;4.93;;;3.28;;
23608;SDS011;11982;50.810;4.442;2022-11-13T14:37:45;6.90;;;3.55;;
23608;SDS011;11982;50.810;4.442;2022-11-13T14:43:04;4.95;;;3.30;;
23608;SDS011;11982;50.810;4.442;2022-11-13T14:45:34;5.57;;;3.47;;
23608;SDS011;11982;50.810;4.442;2022-11-13T14:50:50;7.70;;;4.10;;
23608;SDS011;11982;50.810;4.442;2022-11-13T14:53:25;7.75;;;4.10;;
23608;SDS011;11982;50.810;4.442;2022-11-13T14:56:03;6.13;;;4.03;;
23608;SDS011;11982;50.810;4.442;2022-11-13T15:01:14;6.90;;;4.13;;
23608;SDS011;11982;50.810;4.442;2022-11-13T15:03:48;7.95;;;3.45;;
23608;SDS011;11982;50.810;4.442;2022-11-13T15:06:22;9.68;;;4.05;;
23608;SDS011;11982;50.810;4.442;2022-11-13T15:08:49;6.80;;;3.70;;
23608;SDS011;11982;50.810;4.442;2022-11-13T15:11:20;8.25;;;3.47;;
23608;SDS011;11982;50.810;4.442;2022-11-13T15:13:47;4.50;;;2.92;;
23608;SDS011;11982;50.810;4.442;2022-11-13T15:16:14;6.40;;;3.15;;
23608;SDS011;11982;50.810;4.442;2022-11-13T15:18:53;4.40;;;2.90;;
23608;SDS011;11982;50.810;4.442;2022-11-13T15:21:25;4.85;;;3.10;;
23608;SDS011;11982;50.810;4.442;2022-11-13T15:23:51;5.25;;;3.00;;
23608;SDS011;11982;50.810;4.442;2022-11-13T15:26:16;5.20;;;3.00;;
23608;SDS011;11982;50.810;4.442;2022-11-13T15:28:42;4.90;;;3.03;;
23608;SDS011;11982;50.810;4.442;2022-11-13T15:31:50;5.35;;;3.40;;
23608;SDS011;11982;50.810;4.442;2022-11-13T15:34:01;5.45;;;3.15;;
23608;SDS011;11982;50.810;4.442;2022-11-13T15:36:26;6.90;;;2.90;;
23608;SDS011;11982;50.810;4.442;2022-11-13T15:38:52;10.18;;;3.33;;
23608;SDS011;11982;50.810;4.442;2022-11-13T15:41:19;4.25;;;3.40;;
23608;SDS011;11982;50.810;4.442;2022-11-13T15:43:48;4.72;;;3.00;;
23608;SDS011;11982;50.810;4.442;2022-11-13T15:46:15;6.85;;;3.67;;
23608;SDS011;11982;50.810;4.442;2022-11-13T15:48:43;5.97;;;3.70;;
23608;SDS011;11982;50.810;4.442;2022-11-13T15:53:41;8.48;;;3.42;;
23608;SDS011;11982;50.810;4.442;2022-11-13T15:56:08;5.68;;;3.30;;
23608;SDS011;11982;50.810;4.442;2022-11-13T15:58:34;5.50;;;3.38;;
23608;SDS011;11982;50.810;4.442;2022-11-13T16:00:59;4.40;;;3.40;;
23608;SDS011;11982;50.810;4.442;2022-11-13T16:03:28;5.85;;;3.20;;
23608;SDS011;11982;50.810;4.442;2022-11-13T16:05:57;6.75;;;4.13;;
23608;SDS011;11982;50.810;4.442;2022-11-13T16:08:23;5.25;;;3.42;;
23608;SDS011;11982;50.810;4.442;2022-11-13T16:10:49;5.53;;;4.07;;
23608;SDS011;11982;50.810;4.442;2022-11-13T16:13:14;5.10;;;3.90;;
23608;SDS011;11982;50.810;4.442;2022-11-13T16:15:40;8.57;;;4.40;;
23608;SDS011;11982;50.810;4.442;2022-11-13T16:18:07;6.43;;;4.00;;
23608;SDS011;11982;50.810;4.442;2022-11-13T16:20:46;7.88;;;4.60;;
23608;SDS011;11982;50.810;4.442;2022-11-13T16:23:12;5.65;;;4.15;;
23608;SDS011;11982;50.810;4.442;2022-11-13T16:25:41;6.45;;;4.63;;
23608;SDS011;11982;50.810;4.442;2022-11-13T16:28:13;8.07;;;4.40;;
23608;SDS011;11982;50.810;4.442;2022-11-13T16:30:40;13.13;;;4.60;;
23608;SDS011;11982;50.810;4.442;2022-11-13T16:33:08;6.50;;;4.38;;
23608;SDS011;11982;50.810;4.442;2022-11-13T16:35:34;6.78;;;4.60;;
23608;SDS011;11982;50.810;4.442;2022-11-13T16:38:02;7.45;;;4.70;;
23608;SDS011;11982;50.810;4.442;2022-11-13T16:40:37;14.13;;;8.25;;